Time;durP1;ratioP1;P1;durP2;ratioP2;P2;SDS_P1;SDS_P2;PMS_P1;PMS_P2;Temp;Humidity;BMP_temperature;BMP_pressure;BME280_temperature;BME280_humidity;BME280_pressure;Samples;Min_cycle;Max_cycle;Signal;HPM_P1;HPM_P2
2023/06/21 00:01:31;;;;;;;2.40;2.20;;;27.90;48.70;;;;;;5031922;28;20056;-77
2023/06/21 00:04:00;;;;;;;3.53;2.47;;;27.90;48.90;;;;;;5031959;28;20283;-77
2023/06/21 00:06:29;;;;;;;3.30;2.78;;;27.90;48.80;;;;;;5014066;28;20069;-77
2023/06/21 00:08:57;;;;;;;2.75;2.42;;;27.90;48.80;;;;;;5031973;28;20079;-77
2023/06/21 00:11:23;;;;;;;2.45;2.25;;;27.90;48.60;;;;;;5030759;28;20045;-77
2023/06/21 00:13:52;;;;;;;2.65;2.45;;;27.90;48.80;;;;;;5031927;28;20101;-76
2023/06/21 00:16:19;;;;;;;3.15;2.60;;;27.90;48.80;;;;;;5031826;28;20021;-76
2023/06/21 00:18:44;;;;;;;4.30;2.88;;;27.90;48.90;;;;;;5031939;28;20074;-77
2023/06/21 00:21:10;;;;;;;4.15;2.53;;;28.10;64.70;;;;;;5031859;28;20034;-77
2023/06/21 00:23:35;;;;;;;2.65;2.45;;;27.80;48.90;;;;;;5031743;28;20080;-77
2023/06/21 00:26:01;;;;;;;2.80;2.28;;;27.80;48.60;;;;;;5031070;28;20032;-77
2023/06/21 00:28:28;;;;;;;3.10;2.40;;;27.80;48.80;;;;;;5013833;28;20065;-76
2023/06/21 00:30:53;;;;;;;3.90;2.50;;;27.80;49.00;;;;;;5031831;28;20065;-77
2023/06/21 00:33:19;;;;;;;4.88;2.65;;;27.80;64.50;;;;;;5031465;28;20025;-76
2023/06/21 00:35:44;;;;;;;2.65;2.42;;;27.80;48.90;;;;;;5031623;28;20095;-77
2023/06/21 00:38:12;;;;;;;2.80;2.58;;;27.70;48.90;;;;;;5030371;28;20030;-77
2023/06/21 00:40:38;;;;;;;3.13;2.08;;;27.70;48.80;;;;;;5031462;28;20028;-77
2023/06/21 00:43:05;;;;;;;3.20;2.75;;;27.70;48.90;;;;;;5030701;28;20030;-77
2023/06/21 00:45:39;;;;;;;3.10;2.78;;;27.70;48.80;;;;;;5031450;28;20030;-76
2023/06/21 00:48:05;;;;;;;3.10;2.75;;;27.70;48.90;;;;;;5031627;28;20481;-77
2023/06/21 00:50:31;;;;;;;2.60;2.40;;;27.70;48.90;;;;;;5031430;28;20053;-77
2023/06/21 00:52:57;;;;;;;2.42;2.22;;;27.70;48.90;;;;;;5031389;28;20332;-76
2023/06/21 00:55:23;;;;;;;2.97;2.67;;;27.80;64.60;;;;;;5031430;28;20040;-76
2023/06/21 00:57:52;;;;;;;2.83;2.63;;;27.70;49.00;;;;;;5031423;28;20424;-76
2023/06/21 01:00:20;;;;;;;3.80;3.00;;;27.70;64.40;;;;;;5031439;28;20037;-77
2023/06/21 01:02:50;;;;;;;3.55;2.88;;;27.60;49.00;;;;;;5031450;28;20661;-77
2023/06/21 01:05:16;;;;;;;3.37;2.70;;;27.60;64.70;;;;;;5031402;28;20104;-77
2023/06/21 01:07:54;;;;;;;3.22;2.97;;;27.60;49.00;;;;;;5031666;28;20025;-77
2023/06/21 01:10:44;;;;;;;2.97;2.78;;;27.70;64.60;;;;;;5031267;28;20040;-77
2023/06/21 01:13:36;;;;;;;3.08;2.40;;;27.60;49.10;;;;;;5031375;28;20038;-77
2023/06/21 01:16:16;;;;;;;2.92;2.70;;;27.60;49.20;;;;;;5031413;28;20371;-77
2023/06/21 01:18:46;;;;;;;2.88;2.67;;;27.50;48.90;;;;;;5031133;28;20453;-77
2023/06/21 01:21:24;;;;;;;3.67;2.70;;;27.50;49.70;;;;;;5031261;28;20443;-77
2023/06/21 01:24:08;;;;;;;3.38;2.65;;;27.50;49.00;;;;;;5031428;28;20421;-76
2023/06/21 01:26:48;;;;;;;5.55;3.03;;;27.50;64.60;;;;;;5031244;28;20033;-77
2023/06/21 01:29:16;;;;;;;4.47;3.08;;;27.50;49.00;;;;;;5031286;28;20034;-77
2023/06/21 01:31:44;;;;;;;3.25;3.00;;;27.50;49.60;;;;;;5030960;28;20042;-76
2023/06/21 01:34:10;;;;;;;3.30;3.00;;;27.50;48.80;;;;;;5031216;28;20384;-77
2023/06/21 01:36:39;;;;;;;3.50;3.17;;;27.50;49.00;;;;;;5031097;28;20021;-77
2023/06/21 01:39:10;;;;;;;3.35;3.03;;;27.40;49.00;;;;;;5031187;28;20084;-76
2023/06/21 01:41:37;;;;;;;3.47;3.17;;;27.30;64.60;;;;;;5029827;28;20476;-76
2023/06/21 01:44:10;;;;;;;3.47;3.17;;;27.40;49.10;;;;;;5031134;28;20384;-77
2023/06/21 01:46:36;;;;;;;3.50;3.20;;;27.30;64.60;;;;;;5013091;28;20033;-78
2023/06/21 01:49:06;;;;;;;3.40;3.08;;;27.40;49.10;;;;;;5030888;28;20329;-77
2023/06/21 01:51:34;;;;;;;3.05;2.75;;;27.40;49.10;;;;;;5031092;28;20034;-77
2023/06/21 01:54:00;;;;;;;3.45;2.75;;;27.30;48.90;;;;;;5031130;28;20021;-77
2023/06/21 01:56:26;;;;;;;3.83;3.40;;;27.30;49.00;;;;;;5034352;28;20036;-77
2023/06/21 01:58:52;;;;;;;5.22;2.63;;;27.40;49.00;;;;;;5034295;28;20080;-77
2023/06/21 02:01:21;;;;;;;3.20;2.88;;;27.00;64.60;;;;;;5034363;28;20090;-78
2023/06/21 02:03:52;;;;;;;3.95;3.10;;;27.30;49.00;;;;;;5034108;28;20408;-78
2023/06/21 02:06:20;;;;;;;3.97;3.00;;;27.30;49.00;;;;;;5034429;28;20033;-77
2023/06/21 02:08:48;;;;;;;2.78;2.53;;;27.50;65.10;;;;;;5034239;28;20040;-77
2023/06/21 02:11:14;;;;;;;3.47;3.17;;;27.30;49.10;;;;;;5034136;28;20119;-77
2023/06/21 02:13:40;;;;;;;3.80;3.30;;;27.50;64.80;;;;;;5033888;28;20053;-78
2023/06/21 02:16:05;;;;;;;3.42;3.00;;;27.20;49.00;;;;;;5034221;28;20484;-77
2023/06/21 02:18:31;;;;;;;3.42;3.10;;;27.20;48.60;;;;;;5034039;28;20091;-77
2023/06/21 02:20:57;;;;;;;3.83;3.03;;;27.20;48.90;;;;;;5034109;28;20022;-78
2023/06/21 02:23:23;;;;;;;3.30;3.00;;;27.20;49.10;;;;;;5034130;28;20055;-77
2023/06/21 02:25:49;;;;;;;2.90;2.70;;;27.30;64.80;;;;;;5033841;28;20077;-78
2023/06/21 02:28:16;;;;;;;5.45;3.35;;;27.20;48.70;;;;;;5033942;28;20033;-78
2023/06/21 02:30:42;;;;;;;3.55;3.25;;;27.00;64.50;;;;;;5034121;28;20037;-77
2023/06/21 02:33:08;;;;;;;2.95;2.72;;;27.10;49.00;;;;;;5033752;28;20356;-77
2023/06/21 02:35:33;;;;;;;3.45;3.15;;;27.10;49.10;;;;;;5033894;28;20025;-77
2023/06/21 02:38:00;;;;;;;3.53;3.22;;;27.10;48.90;;;;;;5033829;28;20021;-78
2023/06/21 02:40:26;;;;;;;4.90;3.40;;;27.10;49.00;;;;;;5033850;28;20072;-78
2023/06/21 02:42:52;;;;;;;3.97;3.50;;;26.90;64.60;;;;;;5033739;28;20061;-77
2023/06/21 02:45:18;;;;;;;3.15;2.85;;;27.10;49.20;;;;;;5033771;28;20049;-77
2023/06/21 02:47:44;;;;;;;3.22;3.00;;;27.10;48.80;;;;;;5033595;28;20405;-77
2023/06/21 02:50:10;;;;;;;3.58;3.28;;;27.10;49.20;;;;;;5033408;28;20053;-77
2023/06/21 02:52:36;;;;;;;3.60;3.30;;;27.10;49.00;;;;;;5033402;28;20038;-77
2023/06/21 02:55:04;;;;;;;4.35;3.35;;;27.10;49.10;;;;;;5033394;28;20022;-76
2023/06/21 02:57:30;;;;;;;3.85;3.10;;;27.00;49.20;;;;;;5033523;28;20500;-76
2023/06/21 02:59:59;;;;;;;3.58;3.17;;;27.00;49.10;;;;;;5033300;28;20092;-76
2023/06/21 03:02:33;;;;;;;3.38;3.08;;;27.00;49.20;;;;;;5033127;28;20045;-76
2023/06/21 03:05:00;;;;;;;3.35;3.05;;;26.60;64.90;;;;;;5033159;28;20147;-77
2023/06/21 03:07:27;;;;;;;3.55;3.25;;;27.00;49.10;;;;;;5032343;28;20037;-76
2023/06/21 03:09:53;;;;;;;3.60;3.25;;;27.00;49.20;;;;;;5033174;28;20128;-77
2023/06/21 03:12:18;;;;;;;3.50;3.20;;;27.00;49.00;;;;;;5033196;28;20100;-76
2023/06/21 03:14:44;;;;;;;3.40;3.10;;;27.00;49.10;;;;;;5033430;28;20036;-76
2023/06/21 03:17:09;;;;;;;3.25;3.00;;;27.00;49.10;;;;;;5033160;28;20107;-76
2023/06/21 03:19:36;;;;;;;3.60;3.20;;;27.00;48.90;;;;;;5033337;28;20025;-76
2023/06/21 03:22:02;;;;;;;3.60;3.30;;;27.10;64.90;;;;;;5033348;28;20025;-76
2023/06/21 03:24:32;;;;;;;3.40;3.15;;;26.90;49.00;;;;;;5033247;28;20029;-76
2023/06/21 03:27:02;;;;;;;4.00;3.63;;;26.80;64.90;;;;;;5033222;28;20095;-76
2023/06/21 03:29:28;;;;;;;3.13;2.83;;;26.90;49.30;;;;;;5032979;28;20387;-76
2023/06/21 03:31:54;;;;;;;2.90;2.70;;;26.90;64.80;;;;;;5032712;28;20057;-76
2023/06/21 03:34:20;;;;;;;2.88;2.67;;;26.90;49.40;;;;;;5033060;28;20448;-76
2023/06/21 03:36:46;;;;;;;3.15;2.85;;;26.90;49.20;;;;;;5032520;28;20467;-77
2023/06/21 03:39:12;;;;;;;2.80;2.60;;;26.90;49.30;;;;;;5031552;28;20022;-76
2023/06/21 03:41:38;;;;;;;2.97;2.78;;;26.90;48.80;;;;;;5032603;28;20061;-76
2023/06/21 03:44:04;;;;;;;2.92;2.58;;;26.50;65.00;;;;;;5032659;28;20071;-77
2023/06/21 03:46:29;;;;;;;3.90;2.58;;;26.80;49.30;;;;;;5032641;28;20072;-76
2023/06/21 03:48:55;;;;;;;3.60;2.65;;;26.40;64.60;;;;;;5032617;28;20021;-76
2023/06/21 03:51:22;;;;;;;2.75;2.55;;;26.80;49.30;;;;;;5032585;28;20060;-76
2023/06/21 03:53:47;;;;;;;3.35;2.95;;;26.80;49.40;;;;;;5032551;28;20021;-77
2023/06/21 03:56:13;;;;;;;2.85;2.58;;;26.80;65.80;;;;;;5032461;28;20052;-76
2023/06/21 03:58:38;;;;;;;3.72;2.95;;;26.80;49.40;;;;;;5032585;28;20022;-76
2023/06/21 04:01:04;;;;;;;3.08;2.78;;;26.80;49.10;;;;;;5032426;28;20415;-76
2023/06/21 04:03:30;;;;;;;3.13;2.83;;;26.70;49.20;;;;;;5014442;28;20124;-76
2023/06/21 04:05:55;;;;;;;3.38;2.63;;;26.70;49.00;;;;;;5032339;28;20029;-76
2023/06/21 04:08:21;;;;;;;2.83;2.60;;;26.70;49.20;;;;;;5032056;28;20053;-76
2023/06/21 04:10:47;;;;;;;4.00;2.75;;;26.70;48.90;;;;;;5032368;28;20168;-76
2023/06/21 04:13:13;;;;;;;3.63;2.90;;;26.80;65.00;;;;;;5031949;28;20089;-76
2023/06/21 04:15:39;;;;;;;2.67;2.47;;;26.70;49.00;;;;;;5031930;28;20030;-76
2023/06/21 04:18:05;;;;;;;3.22;2.80;;;26.90;64.90;;;;;;5014486;28;20047;-76
2023/06/21 04:20:31;;;;;;;2.65;2.45;;;26.60;49.10;;;;;;5031982;28;20083;-76
2023/06/21 04:22:57;;;;;;;3.05;2.20;;;26.70;49.10;;;;;;5031684;28;20499;-76
2023/06/21 04:25:23;;;;;;;2.58;2.38;;;26.70;49.20;;;;;;5031885;28;20029;-76
2023/06/21 04:27:49;;;;;;;2.63;2.42;;;26.60;64.80;;;;;;5031838;28;20483;-76
2023/06/21 04:30:16;;;;;;;3.03;2.50;;;26.60;49.20;;;;;;5031829;28;21892;-76
2023/06/21 04:32:45;;;;;;;3.53;2.60;;;26.60;49.30;;;;;;5032003;28;20076;-76
2023/06/21 04:35:15;;;;;;;2.15;1.95;;;26.60;49.00;;;;;;5031802;28;20433;-76
2023/06/21 04:37:45;;;;;;;2.55;2.35;;;26.60;49.00;;;;;;5031925;28;20029;-76
2023/06/21 04:40:15;;;;;;;2.60;1.95;;;26.90;64.70;;;;;;5031796;28;20028;-77
2023/06/21 04:42:45;;;;;;;2.40;2.20;;;26.60;49.10;;;;;;5031401;28;20076;-76
2023/06/21 04:45:16;;;;;;;2.35;2.15;;;26.60;49.20;;;;;;5031670;28;20048;-76
2023/06/21 04:47:46;;;;;;;2.88;2.10;;;26.60;48.90;;;;;;5031868;28;20018;-76
2023/06/21 04:50:13;;;;;;;1.85;1.70;;;26.60;48.90;;;;;;5031319;28;20476;-77
2023/06/21 04:52:39;;;;;;;2.80;2.15;;;26.60;48.90;;;;;;5031706;28;20044;-76
2023/06/21 04:55:05;;;;;;;3.08;2.15;;;26.50;49.00;;;;;;5031347;28;20476;-76
2023/06/21 04:57:32;;;;;;;2.35;2.15;;;26.60;49.40;;;;;;5031576;28;20132;-76
2023/06/21 04:59:58;;;;;;;1.60;1.50;;;26.50;49.00;;;;;;5031497;28;20017;-76
2023/06/21 05:02:25;;;;;;;2.20;1.77;;;26.50;49.00;;;;;;5031190;28;20095;-76
2023/06/21 05:04:51;;;;;;;2.08;1.90;;;26.50;49.00;;;;;;5031674;28;20030;-77
2023/06/21 05:07:17;;;;;;;2.38;1.67;;;26.50;49.00;;;;;;5031401;28;20039;-76
2023/06/21 05:09:43;;;;;;;2.30;2.10;;;26.50;49.10;;;;;;5013824;28;20172;-77
2023/06/21 05:12:10;;;;;;;2.22;1.80;;;26.50;49.00;;;;;;5031620;28;20040;-76
2023/06/21 05:14:36;;;;;;;2.10;1.90;;;26.50;49.00;;;;;;5031303;28;20100;-76
2023/06/21 05:17:02;;;;;;;1.98;1.77;;;26.50;49.10;;;;;;5031453;28;20046;-77
2023/06/21 05:19:28;;;;;;;1.67;1.58;;;26.50;49.20;;;;;;5031322;28;20433;-76
2023/06/21 05:21:53;;;;;;;1.60;1.50;;;26.50;49.00;;;;;;5031803;28;20057;-79
2023/06/21 05:24:19;;;;;;;1.77;1.67;;;26.50;49.70;;;;;;5037379;28;20025;-76
2023/06/21 05:26:44;;;;;;;1.45;1.35;;;26.50;49.10;;;;;;5031169;28;20026;-78
2023/06/21 05:29:11;;;;;;;1.80;1.50;;;26.50;48.90;;;;;;5032261;28;20056;-76
2023/06/21 05:31:42;;;;;;;2.03;1.85;;;26.50;48.90;;;;;;5035346;28;20049;-77
2023/06/21 05:34:09;;;;;;;3.13;1.65;;;26.50;49.20;;;;;;5035687;28;20376;-78
2023/06/21 05:36:35;;;;;;;1.90;1.55;;;26.50;49.40;;;;;;5035389;28;20029;-77
2023/06/21 05:39:02;;;;;;;1.95;1.60;;;26.50;49.40;;;;;;5017496;28;20507;-76
2023/06/21 05:41:28;;;;;;;1.60;1.50;;;26.50;49.30;;;;;;5035465;28;20025;-77
2023/06/21 05:43:54;;;;;;;2.65;1.45;;;26.50;49.60;;;;;;5035135;28;20026;-80
2023/06/21 05:46:20;;;;;;;1.50;1.40;;;26.50;49.40;;;;;;5035059;28;20029;-79
2023/06/21 05:48:45;;;;;;;1.77;1.38;;;26.50;50.20;;;;;;5034798;28;20021;-79
2023/06/21 05:51:11;;;;;;;1.65;1.15;;;26.50;49.60;;;;;;5034894;28;20040;-76
2023/06/21 05:53:37;;;;;;;1.42;1.20;;;26.50;49.70;;;;;;5034669;28;20503;-76
2023/06/21 05:56:02;;;;;;;2.28;1.10;;;26.50;49.60;;;;;;5034992;28;20109;-76
2023/06/21 05:58:29;;;;;;;2.05;1.30;;;26.50;49.60;;;;;;5034481;28;20472;-76
2023/06/21 06:00:56;;;;;;;1.33;1.13;;;26.50;49.70;;;;;;5034548;28;20048;-77
2023/06/21 06:03:22;;;;;;;1.70;1.05;;;26.50;49.90;;;;;;5034192;28;20044;-78
2023/06/21 06:05:49;;;;;;;1.55;1.40;;;26.50;49.90;;;;;;5034279;28;20083;-79
2023/06/21 06:08:15;;;;;;;1.90;1.10;;;26.50;49.90;;;;;;5034760;28;20036;-80
2023/06/21 06:10:42;;;;;;;3.63;1.30;;;26.50;49.90;;;;;;5041095;28;20022;-78
2023/06/21 06:13:08;;;;;;;1.52;0.90;;;26.50;50.00;;;;;;5035487;28;20024;-78
2023/06/21 06:15:34;;;;;;;1.30;0.82;;;26.40;49.90;;;;;;5034847;28;20026;-80
2023/06/21 06:18:00;;;;;;;1.83;0.90;;;26.40;50.10;;;;;;5034773;28;20066;-78
2023/06/21 06:20:27;;;;;;;2.03;1.13;;;26.40;50.10;;;;;;5034577;28;20115;-79
2023/06/21 06:22:53;;;;;;;2.42;1.10;;;26.40;50.20;;;;;;5034698;28;20074;-78
2023/06/21 06:25:19;;;;;;;1.85;0.73;;;26.40;50.10;;;;;;5034490;28;20021;-80
2023/06/21 06:27:45;;;;;;;1.67;0.98;;;26.40;50.10;;;;;;5034553;28;20407;-80
2023/06/21 06:30:12;;;;;;;2.15;0.85;;;26.40;50.10;;;;;;5034332;28;20041;-80
2023/06/21 06:32:37;;;;;;;2.35;0.80;;;26.40;50.10;;;;;;5034059;28;20039;-81
2023/06/21 06:35:04;;;;;;;1.48;0.60;;;26.40;50.20;;;;;;5034358;28;20483;-80
2023/06/21 06:37:30;;;;;;;2.38;0.90;;;26.40;50.20;;;;;;5034463;28;20146;-79
2023/06/21 06:39:56;;;;;;;3.63;1.13;;;26.30;50.20;;;;;;5033884;28;20044;-77
2023/06/21 06:42:23;;;;;;;2.53;0.70;;;26.30;50.10;;;;;;5032823;28;20026;-78
2023/06/21 06:44:50;;;;;;;1.00;0.73;;;26.30;50.10;;;;;;5016182;28;20563;-78
2023/06/21 06:47:16;;;;;;;0.98;0.63;;;26.30;50.40;;;;;;5016605;28;20025;-79
2023/06/21 06:49:43;;;;;;;0.90;0.73;;;26.30;50.50;;;;;;5016488;28;20060;-78
2023/06/21 06:52:11;;;;;;;1.55;0.95;;;26.30;50.50;;;;;;5016488;28;20510;-78
2023/06/21 06:54:37;;;;;;;1.20;0.65;;;26.30;50.60;;;;;;5016792;28;20032;-78
2023/06/21 06:57:04;;;;;;;1.65;0.90;;;26.30;50.40;;;;;;5016722;28;20040;-76
2023/06/21 06:59:30;;;;;;;1.23;0.80;;;26.30;50.40;;;;;;5016746;28;20026;-75
2023/06/21 07:01:56;;;;;;;1.67;0.70;;;26.30;50.50;;;;;;5016137;28;20041;-76
2023/06/21 07:04:22;;;;;;;1.92;0.90;;;26.30;50.50;;;;;;5016627;28;20376;-76
2023/06/21 07:06:48;;;;;;;1.33;0.70;;;26.30;50.50;;;;;;5032665;28;20559;-76
2023/06/21 07:09:14;;;;;;;2.45;1.00;;;26.30;50.50;;;;;;5016374;28;20026;-76
2023/06/21 07:11:40;;;;;;;2.55;0.60;;;26.30;50.50;;;;;;5016345;28;20034;-77
2023/06/21 07:14:06;;;;;;;0.98;0.70;;;26.30;50.60;;;;;;5016340;28;20022;-76
2023/06/21 07:16:40;;;;;;;1.42;0.70;;;26.30;50.80;;;;;;5016089;28;20117;-78
2023/06/21 07:19:06;;;;;;;1.88;1.00;;;26.30;50.80;;;;;;5033551;28;20492;-77
2023/06/21 07:21:33;;;;;;;1.67;1.05;;;26.30;50.80;;;;;;5033628;28;20013;-77
2023/06/21 07:23:59;;;;;;;0.93;0.70;;;26.30;51.20;;;;;;5033390;28;20546;-76
2023/06/21 07:26:25;;;;;;;1.88;0.73;;;26.30;51.20;;;;;;5033672;28;20025;-76
2023/06/21 07:28:51;;;;;;;1.30;0.80;;;26.30;51.10;;;;;;5033638;28;20395;-77
2023/06/21 07:31:17;;;;;;;2.28;0.82;;;26.30;51.10;;;;;;5033409;28;20037;-76
2023/06/21 07:33:43;;;;;;;2.55;0.63;;;26.30;51.00;;;;;;5033285;28;20438;-76
2023/06/21 07:36:09;;;;;;;4.72;1.10;;;26.30;51.00;;;;;;5033277;28;20029;-76
2023/06/21 07:38:35;;;;;;;1.92;0.80;;;26.30;51.00;;;;;;5033233;28;20072;-76
2023/06/21 07:41:01;;;;;;;3.17;0.77;;;26.30;51.00;;;;;;5033319;28;20022;-76
2023/06/21 07:43:27;;;;;;;2.10;0.82;;;26.30;50.80;;;;;;5032202;28;20514;-76
2023/06/21 07:45:54;;;;;;;2.33;1.10;;;26.30;50.50;;;;;;5032947;28;20397;-76
2023/06/21 07:48:20;;;;;;;2.20;0.80;;;26.20;50.40;;;;;;5033405;28;20021;-76
2023/06/21 07:50:46;;;;;;;2.03;0.60;;;26.20;50.30;;;;;;5032923;28;20484;-76
2023/06/21 07:53:12;;;;;;;2.17;0.90;;;26.20;50.30;;;;;;5032373;28;20033;-76
2023/06/21 07:55:38;;;;;;;3.60;1.05;;;26.20;50.30;;;;;;5033160;28;20021;-76
2023/06/21 07:58:04;;;;;;;1.55;0.77;;;26.20;50.20;;;;;;5032657;28;20044;-76
2023/06/21 08:00:30;;;;;;;1.98;0.57;;;26.20;50.30;;;;;;5033029;28;20037;-76
2023/06/21 08:02:56;;;;;;;1.38;0.60;;;26.20;50.30;;;;;;5032471;28;20041;-76
2023/06/21 08:05:22;;;;;;;0.60;0.60;;;26.30;50.30;;;;;;5032849;28;20052;-76
2023/06/21 08:07:48;;;;;;;2.45;0.90;;;26.20;50.40;;;;;;5032868;28;20025;-76
2023/06/21 08:10:13;;;;;;;1.55;0.90;;;26.20;50.40;;;;;;5032520;28;20448;-75
2023/06/21 08:12:39;;;;;;;1.80;0.82;;;26.30;50.50;;;;;;5032697;28;20037;-87
2023/06/21 08:15:05;;;;;;;3.22;0.70;;;26.30;50.50;;;;;;5032480;28;20028;-77
2023/06/21 08:17:31;;;;;;;1.77;0.70;;;26.30;50.50;;;;;;5032516;28;20056;-76
2023/06/21 08:19:58;;;;;;;2.35;0.68;;;26.30;50.50;;;;;;5032639;28;20621;-77
2023/06/21 08:22:24;;;;;;;5.43;0.90;;;26.30;50.60;;;;;;5032394;28;20029;-77
2023/06/21 08:24:50;;;;;;;3.10;1.10;;;26.30;50.70;;;;;;5032509;28;20029;-77
2023/06/21 08:27:15;;;;;;;1.45;0.85;;;26.40;50.80;;;;;;5032561;28;20033;-77
2023/06/21 08:29:41;;;;;;;1.67;0.90;;;26.40;50.80;;;;;;5032580;28;20128;-82
2023/06/21 08:32:07;;;;;;;1.45;0.80;;;26.50;50.70;;;;;;5032348;28;20494;-82
2023/06/21 08:34:32;;;;;;;2.13;0.90;;;26.40;50.60;;;;;;5032392;28;20095;-82
2023/06/21 08:36:58;;;;;;;4.35;1.10;;;26.50;50.80;;;;;;5032966;28;20435;-80
2023/06/21 08:39:24;;;;;;;1.00;0.63;;;26.60;50.60;;;;;;5032330;28;20022;-82
2023/06/21 08:41:50;;;;;;;1.30;0.90;;;26.50;50.60;;;;;;5036941;28;20034;-85
2023/06/21 08:44:15;;;;;;;0.50;0.50;;;26.60;50.70;;;;;;5032271;28;20025;-80
2023/06/21 08:46:43;;;;;;;1.45;0.88;;;26.50;50.50;;;;;;5032245;28;20033;-82
2023/06/21 08:49:13;;;;;;;1.75;0.77;;;26.60;50.80;;;;;;5032309;28;20013;-80
2023/06/21 08:51:40;;;;;;;2.45;1.13;;;26.50;50.70;;;;;;5032003;28;20037;-80
2023/06/21 08:54:10;;;;;;;0.75;0.60;;;26.60;50.60;;;;;;5032182;28;20485;-81
2023/06/21 08:56:48;;;;;;;1.95;0.82;;;26.60;50.70;;;;;;5032003;28;20079;-81
2023/06/21 08:59:26;;;;;;;2.25;0.80;;;26.60;50.60;;;;;;5032104;28;20361;-80
2023/06/21 09:02:03;;;;;;;1.65;0.60;;;26.60;50.70;;;;;;5032143;28;20034;-81
2023/06/21 09:04:32;;;;;;;0.93;0.50;;;26.60;50.70;;;;;;5033255;28;20025;-79
2023/06/21 09:07:00;;;;;;;2.42;0.70;;;26.70;50.70;;;;;;5036490;28;20045;-77
2023/06/21 09:09:26;;;;;;;2.28;0.60;;;26.70;50.70;;;;;;5035855;28;20049;-78
2023/06/21 09:11:53;;;;;;;0.57;0.57;;;26.70;51.00;;;;;;5036209;28;20043;-80
2023/06/21 09:14:21;;;;;;;2.83;0.90;;;26.70;50.90;;;;;;5035781;28;20051;-83
2023/06/21 09:16:47;;;;;;;1.48;0.57;;;26.80;51.10;;;;;;5035878;28;20113;-78
2023/06/21 09:19:15;;;;;;;1.58;0.63;;;26.80;51.10;;;;;;5036028;28;20021;-78
2023/06/21 09:21:42;;;;;;;4.20;0.80;;;26.80;51.00;;;;;;5036017;28;20041;-77
2023/06/21 09:24:08;;;;;;;1.17;0.77;;;26.80;51.00;;;;;;5035830;28;20032;-77
2023/06/21 09:26:36;;;;;;;1.27;0.73;;;26.90;50.90;;;;;;5035632;28;20392;-78
2023/06/21 09:29:02;;;;;;;1.92;0.90;;;26.90;50.80;;;;;;5035601;28;20022;-77
2023/06/21 09:31:28;;;;;;;1.75;0.73;;;27.00;50.30;;;;;;5035770;28;20032;-79
2023/06/21 09:33:55;;;;;;;1.38;0.52;;;27.10;50.30;;;;;;5035683;28;20459;-79
2023/06/21 09:36:20;;;;;;;1.65;0.68;;;27.10;49.90;;;;;;5035719;28;20059;-79
2023/06/21 09:38:46;;;;;;;2.22;0.75;;;27.20;49.50;;;;;;5034427;28;20056;-79
2023/06/21 09:41:11;;;;;;;1.83;0.70;;;27.20;49.70;;;;;;5035676;28;20112;-80
2023/06/21 09:43:42;;;;;;;2.50;0.88;;;27.30;49.70;;;;;;5035546;28;20030;-78
2023/06/21 09:46:09;;;;;;;3.55;0.93;;;27.30;49.40;;;;;;5035744;28;20021;-79
2023/06/21 09:48:36;;;;;;;0.95;0.68;;;27.30;49.50;;;;;;5035395;28;20029;-79
2023/06/21 09:51:03;;;;;;;2.25;0.80;;;27.40;49.90;;;;;;5035192;28;20037;-78
2023/06/21 09:53:29;;;;;;;3.10;0.70;;;27.40;50.00;;;;;;5035361;28;20053;-78
2023/06/21 09:56:00;;;;;;;1.95;0.90;;;27.50;50.00;;;;;;5035221;28;20087;-78
2023/06/21 09:58:26;;;;;;;1.08;0.82;;;27.50;50.40;;;;;;5035272;28;20104;-79
2023/06/21 10:00:51;;;;;;;0.88;0.50;;;27.60;50.00;;;;;;5035136;28;20116;-82
2023/06/21 10:03:22;;;;;;;1.08;0.60;;;27.70;50.20;;;;;;5034877;28;20064;-78
2023/06/21 10:06:02;;;;;;;1.92;0.68;;;27.70;50.00;;;;;;5035385;28;20025;-79
2023/06/21 10:08:32;;;;;;;2.55;0.73;;;27.80;49.90;;;;;;5035254;28;20020;-78
2023/06/21 10:10:57;;;;;;;2.87;0.87;;;27.80;49.80;;;;;;5035293;28;20383;-85
2023/06/21 10:13:31;;;;;;;2.67;0.93;;;27.90;49.80;;;;;;5038021;28;20368;-77
2023/06/21 10:16:00;;;;;;;2.78;1.10;;;27.90;49.80;;;;;;5038268;28;20017;-80
2023/06/21 10:18:27;;;;;;;2.03;1.00;;;27.90;49.40;;;;;;5037314;28;20021;-80
2023/06/21 10:21:00;;;;;;;1.52;0.75;;;28.10;49.00;;;;;;5035960;28;20369;-81
2023/06/21 10:23:31;;;;;;;2.42;1.20;;;28.00;49.60;;;;;;5035335;28;20104;-80
2023/06/21 10:26:02;;;;;;;2.78;0.90;;;28.10;49.30;;;;;;5035383;28;20040;-81
2023/06/21 10:28:31;;;;;;;2.88;0.98;;;28.20;49.50;;;;;;5033748;28;20471;-80
2023/06/21 10:30:59;;;;;;;1.77;1.10;;;28.20;49.30;;;;;;5033741;28;20098;-78
2023/06/21 10:33:29;;;;;;;3.22;0.90;;;28.30;49.30;;;;;;5035175;28;20030;-79
2023/06/21 10:35:59;;;;;;;3.17;1.10;;;28.30;49.30;;;;;;5034649;28;20091;-81
2023/06/21 10:38:38;;;;;;;0.95;0.80;;;28.40;49.10;;;;;;5034820;28;20041;-79
2023/06/21 10:41:05;;;;;;;1.65;0.90;;;28.40;48.90;;;;;;5034810;28;20029;-81
2023/06/21 10:43:33;;;;;;;1.95;1.00;;;28.50;49.00;;;;;;5034574;28;20113;-79
2023/06/21 10:46:00;;;;;;;2.20;0.80;;;28.50;48.90;;;;;;5034545;28;20022;-80
2023/06/21 10:48:26;;;;;;;1.35;0.90;;;28.50;48.90;;;;;;5034763;28;20033;-85
2023/06/21 10:50:52;;;;;;;1.90;0.82;;;28.60;49.00;;;;;;5034552;28;20022;-80
2023/06/21 10:53:19;;;;;;;2.17;0.85;;;28.70;48.70;;;;;;5034668;28;20041;-80
2023/06/21 10:55:46;;;;;;;1.00;0.90;;;28.70;48.80;;;;;;5034721;28;20380;-80
2023/06/21 10:58:13;;;;;;;2.33;0.90;;;28.80;49.40;;;;;;5034631;28;20030;-80
2023/06/21 11:00:42;;;;;;;1.75;1.00;;;28.80;48.60;;;;;;5034237;28;20633;-80
2023/06/21 11:03:12;;;;;;;2.72;1.00;;;28.90;48.60;;;;;;5034004;28;20404;-80
2023/06/21 11:05:40;;;;;;;1.77;0.80;;;28.90;48.20;;;;;;5034118;28;20026;-79
2023/06/21 11:08:08;;;;;;;1.63;1.02;;;29.00;47.60;;;;;;5034343;28;20049;-80
2023/06/21 11:10:51;;;;;;;1.70;0.93;;;29.00;48.00;;;;;;5033984;28;20112;-80
2023/06/21 11:13:33;;;;;;;1.10;0.80;;;29.00;48.10;;;;;;5034150;28;20029;-80
2023/06/21 11:16:13;;;;;;;1.98;1.00;;;29.10;48.20;;;;;;5034210;28;20021;-79
2023/06/21 11:18:42;;;;;;;1.13;0.85;;;29.10;47.80;;;;;;5033970;28;20018;-79
2023/06/21 11:21:08;;;;;;;4.13;1.20;;;29.20;48.10;;;;;;5033777;28;20064;-80
2023/06/21 11:23:50;;;;;;;3.72;1.00;;;29.20;46.60;;;;;;5033612;28;20021;-81
2023/06/21 11:27:04;;;;;;;1.25;0.55;;;29.30;47.30;;;;;;5033118;28;20065;-80
2023/06/21 11:29:59;;;;;;;0.77;0.73;;;29.50;47.60;;;;;;5033358;28;20037;-81
2023/06/21 11:32:55;;;;;;;1.42;0.65;;;28.70;46.90;;;;;;5033441;28;20041;-80
2023/06/21 11:35:50;;;;;;;1.60;0.70;;;29.70;47.30;;;;;;5033256;28;20030;-80
2023/06/21 11:38:37;;;;;;;2.38;0.95;;;29.80;47.50;;;;;;5033302;28;20044;-80
2023/06/21 11:41:45;;;;;;;1.58;0.95;;;29.90;48.00;;;;;;5033274;28;20108;-80
2023/06/21 11:44:31;;;;;;;1.92;0.70;;;30.00;48.70;;;;;;5033016;28;20029;-80
2023/06/21 11:47:18;;;;;;;1.08;0.60;;;30.10;48.00;;;;;;5032998;28;20037;-80
2023/06/21 11:50:13;;;;;;;0.90;0.50;;;30.10;47.70;;;;;;5033001;28;20037;-80
2023/06/21 11:53:20;;;;;;;1.05;0.80;;;30.10;47.00;;;;;;5033087;28;20084;-80
2023/06/21 11:56:05;;;;;;;0.70;0.70;;;30.20;47.20;;;;;;5032770;28;20463;-80
2023/06/21 11:58:50;;;;;;;0.90;0.80;;;30.40;47.20;;;;;;5033043;28;20049;-80
2023/06/21 12:01:36;;;;;;;2.25;1.00;;;30.40;48.10;;;;;;5032781;28;20033;-80
2023/06/21 12:04:26;;;;;;;1.13;1.00;;;30.50;47.40;;;;;;5032749;28;20523;-80
2023/06/21 12:07:12;;;;;;;1.52;0.73;;;30.50;48.30;;;;;;5032840;28;20041;-80
2023/06/21 12:10:00;;;;;;;0.88;0.70;;;30.60;47.30;;;;;;5032779;28;20453;-80
2023/06/21 12:12:44;;;;;;;1.33;0.70;;;30.60;47.30;;;;;;5032387;28;20041;-80
2023/06/21 12:15:30;;;;;;;1.52;0.93;;;30.60;47.50;;;;;;5032536;28;20040;-80
2023/06/21 12:18:16;;;;;;;1.60;1.00;;;30.70;47.10;;;;;;5032518;28;20395;-80
2023/06/21 12:21:03;;;;;;;0.70;0.57;;;30.80;47.90;;;;;;5032400;28;20025;-80
2023/06/21 12:23:56;;;;;;;1.77;1.00;;;30.80;46.70;;;;;;5032422;28;20021;-80
2023/06/21 12:26:26;;;;;;;0.60;0.60;;;30.80;47.70;;;;;;5032733;28;20021;-80
2023/06/21 12:28:52;;;;;;;1.13;0.80;;;30.90;46.90;;;;;;5032554;28;20029;-79
2023/06/21 12:31:18;;;;;;;1.42;0.63;;;30.90;46.40;;;;;;5032147;28;20052;-79
2023/06/21 12:33:44;;;;;;;1.17;0.85;;;30.90;46.20;;;;;;5032217;28;20025;-80
2023/06/21 12:36:23;;;;;;;1.35;0.85;;;30.90;45.80;;;;;;5032286;28;20045;-79
2023/06/21 12:38:57;;;;;;;8.45;0.82;;;30.90;45.60;;;;;;5032435;28;20109;-80
2023/06/21 12:41:25;;;;;;;2.08;1.00;;;30.90;45.40;;;;;;5032044;28;20033;-80
2023/06/21 12:43:53;;;;;;;1.48;1.02;;;31.00;45.30;;;;;;5032015;28;20033;-80
2023/06/21 12:46:21;;;;;;;2.45;1.70;;;31.10;45.90;;;;;;5031961;28;20021;-80
2023/06/21 12:48:50;;;;;;;2.22;1.75;;;31.10;44.60;;;;;;5032155;28;20049;-80
2023/06/21 12:51:29;;;;;;;2.65;1.40;;;31.10;44.20;;;;;;5032000;28;20037;-80
2023/06/21 12:53:57;;;;;;;4.45;1.42;;;31.20;44.70;;;;;;5031178;28;20021;-80
2023/06/21 12:56:27;;;;;;;1.95;1.67;;;31.20;44.00;;;;;;5032216;28;20075;-80
2023/06/21 12:58:53;;;;;;;1.63;1.40;;;31.20;44.50;;;;;;5032304;28;20028;-80